createdAt,value
2023-05-01T00:01:06.100Z,37493.81
2023-05-01T00:03:33.744Z,37487.84
2023-05-01T00:06:02.272Z,37513.75
2023-05-01T00:08:28.943Z,37495.81
2023-05-01T00:10:55.833Z,37539.69
2023-05-01T00:13:24.245Z,37505.78
2023-05-01T00:15:51.164Z,37537.69
2023-05-01T00:18:17.588Z,37531.72
2023-05-01T00:20:44.039Z,37511.78
2023-05-01T00:23:12.317Z,37527.72
2023-05-01T00:25:39.147Z,37527.72
2023-05-01T00:28:06.362Z,37517.75
2023-05-01T00:30:33.953Z,37525.72
2023-05-01T00:33:01.801Z,37521.75
2023-05-01T00:35:29.950Z,37507.78
2023-05-01T00:37:56.476Z,37531.72
2023-05-01T00:40:23.050Z,37519.75
2023-05-01T00:42:49.492Z,37549.66
2023-05-01T00:45:16.165Z,37525.72
2023-05-01T00:47:42.661Z,37525.72
2023-05-01T00:50:10.351Z,37565.59
2023-05-01T00:52:37.681Z,37573.56
2023-05-01T00:55:05.297Z,37543.66
2023-05-01T00:57:33.111Z,37569.59
2023-05-01T00:59:59.602Z,37593.50
2023-05-01T01:02:27.135Z,37543.66
2023-05-01T01:04:54.058Z,37573.56
2023-05-01T01:07:59.294Z,37585.53
2023-05-01T01:10:54.208Z,37617.44
2023-05-01T01:13:32.878Z,37637.38
2023-05-01T01:16:08.920Z,37637.38
2023-05-01T01:18:48.525Z,37639.38
2023-05-01T01:21:28.216Z,37669.28
2023-05-01T01:24:16.471Z,37663.28
2023-05-01T01:27:13.179Z,37673.25
2023-05-01T01:29:51.156Z,37735.06
2023-05-01T01:32:58.076Z,37768.97
2023-05-01T01:35:27.156Z,37788.91
2023-05-01T01:38:19.364Z,37820.81
2023-05-01T01:41:01.134Z,37840.75
2023-05-01T01:43:33.207Z,37850.72
2023-05-01T01:46:03.756Z,37888.59
2023-05-01T01:48:34.252Z,37928.47
2023-05-01T01:51:04.804Z,37986.31
2023-05-01T01:53:33.195Z,38012.22
2023-05-01T01:56:03.829Z,38020.22
2023-05-01T01:58:32.098Z,38068.06
2023-05-01T02:01:00.399Z,38076.03
2023-05-01T02:03:30.758Z,38161.78
2023-05-01T02:05:59.736Z,38191.69
2023-05-01T02:08:29.963Z,38239.56
2023-05-01T02:11:01.104Z,38267.47
2023-05-01T02:13:30.044Z,38283.44
2023-05-01T02:15:58.730Z,38325.31
2023-05-01T02:18:28.709Z,38347.25
2023-05-01T02:20:58.689Z,38385.13
2023-05-01T02:23:28.418Z,38399.09
2023-05-01T02:25:57.705Z,38379.16
2023-05-01T02:28:26.734Z,38427.00
2023-05-01T02:30:53.280Z,38458.91
2023-05-01T02:33:20.180Z,38454.94
2023-05-01T02:35:47.541Z,38496.81
2023-05-01T02:38:16.994Z,38506.78
2023-05-01T02:40:47.064Z,38522.75
2023-05-01T02:43:18.407Z,38550.66
2023-05-01T02:45:46.109Z,38586.56
2023-05-01T02:48:16.760Z,38584.56
2023-05-01T02:50:44.997Z,38598.53
2023-05-01T02:53:13.362Z,38628.44
2023-05-01T02:55:48.090Z,38650.38
2023-05-01T02:58:18.932Z,38662.34
2023-05-01T03:00:47.087Z,38684.28
2023-05-01T03:03:13.665Z,38682.28
2023-05-01T03:05:41.640Z,38742.13
2023-05-01T03:08:11.105Z,38726.16
2023-05-01T03:10:42.543Z,38736.13
2023-05-01T03:13:10.830Z,38760.06
2023-05-01T03:15:37.946Z,38766.06
2023-05-01T03:18:05.522Z,38786.00
2023-05-01T03:20:32.089Z,38801.97
2023-05-01T03:22:59.228Z,38833.88
2023-05-01T03:25:26.000Z,38859.81
2023-05-01T03:27:54.765Z,38889.72
2023-05-01T03:30:21.816Z,38903.69
2023-05-01T03:32:48.977Z,38941.56
2023-05-01T03:35:21.694Z,38937.59
2023-05-01T03:37:49.239Z,39005.41
2023-05-01T03:40:35.019Z,39037.31
2023-05-01T03:43:20.046Z,39059.25
2023-05-01T03:45:46.693Z,39083.19
2023-05-01T03:48:14.137Z,39121.09
2023-05-01T03:50:41.285Z,39129.06
2023-05-01T03:53:07.720Z,39176.94
2023-05-01T03:55:34.807Z,39224.81
2023-05-01T03:58:01.890Z,39240.78
2023-05-01T04:00:28.475Z,39288.66
2023-05-01T04:02:56.634Z,39334.53
2023-05-01T04:05:24.359Z,39358.47
2023-05-01T04:07:53.750Z,39422.31
2023-05-01T04:10:20.234Z,39448.25
2023-05-01T04:12:55.622Z,39462.19
2023-05-01T04:15:22.501Z,39544.00
2023-05-01T04:17:49.301Z,39551.97
2023-05-01T04:20:19.058Z,39563.94
2023-05-01T04:22:47.046Z,39631.78
2023-05-01T04:25:13.463Z,39669.69
2023-05-01T04:27:40.593Z,39703.59
2023-05-01T04:30:08.351Z,39723.53
2023-05-01T04:32:35.533Z,39787.38
2023-05-01T04:35:02.536Z,39843.25
2023-05-01T04:37:29.556Z,39855.22
2023-05-01T04:39:56.403Z,39929.03
2023-05-01T04:42:29.590Z,39943.00
2023-05-01T04:44:56.168Z,39996.88
2023-05-01T04:47:22.572Z,40064.72
2023-05-01T04:49:49.002Z,40090.66
2023-05-01T04:52:17.506Z,40158.50
2023-05-01T04:54:51.014Z,40208.38
2023-05-01T04:57:18.359Z,40262.25
2023-05-01T04:59:45.075Z,40298.16
2023-05-01T05:02:12.972Z,40356.03
2023-05-01T05:04:39.422Z,40401.91
2023-05-01T05:07:06.166Z,40457.78
2023-05-01T05:09:53.043Z,40509.69
2023-05-01T05:12:20.068Z,40573.53
2023-05-01T05:14:47.873Z,40613.44
2023-05-01T05:17:16.529Z,40641.38
2023-05-01T05:19:43.122Z,40703.25
2023-05-01T05:22:12.088Z,40791.06
2023-05-01T05:25:00.004Z,40830.97
2023-05-01T05:27:26.640Z,40886.84
2023-05-01T05:29:53.314Z,40970.66
2023-05-01T05:32:19.990Z,41046.50
2023-05-01T05:34:47.633Z,41072.47
2023-05-01T05:37:15.312Z,41132.34
2023-05-01T05:39:48.997Z,41200.19
2023-05-01T05:42:15.532Z,41236.13
2023-05-01T05:44:41.942Z,41228.13
2023-05-01T05:47:09.137Z,41232.13
2023-05-01T05:49:35.775Z,41236.13
2023-05-01T05:52:02.388Z,41072.47
2023-05-01T05:54:29.271Z,40998.63
2023-05-01T05:56:56.123Z,40958.69
2023-05-01T05:59:23.137Z,40908.81
2023-05-01T06:01:50.002Z,40884.84
2023-05-01T06:04:16.562Z,40805.03
2023-05-01T06:06:44.116Z,40751.16
2023-05-01T06:09:12.310Z,40709.22
2023-05-01T06:11:38.845Z,40653.34
2023-05-01T06:14:05.935Z,40571.53
2023-05-01T06:16:34.361Z,40483.75
2023-05-01T06:19:01.625Z,40393.94
2023-05-01T06:21:28.177Z,40379.97
2023-05-01T06:23:54.647Z,40236.31
2023-05-01T06:26:23.751Z,40242.28
2023-05-01T06:28:50.323Z,40190.41
2023-05-01T06:31:16.864Z,40140.53
2023-05-01T06:33:49.593Z,40102.63
2023-05-01T06:36:23.500Z,40078.69
2023-05-01T06:38:50.024Z,40004.84
2023-05-01T06:41:16.751Z,39952.97
2023-05-01T06:43:46.003Z,39943.00
2023-05-01T06:46:12.692Z,39907.09
2023-05-01T06:48:39.221Z,39897.13
2023-05-01T06:51:05.757Z,39859.22
2023-05-01T06:53:32.288Z,39823.28
2023-05-01T06:55:58.719Z,39795.38
2023-05-01T06:58:26.166Z,39747.47
2023-05-01T07:00:53.953Z,39747.47
2023-05-01T07:03:21.377Z,39711.56
2023-05-01T07:05:47.862Z,39679.66
2023-05-01T07:08:14.442Z,39679.66
2023-05-01T07:10:42.281Z,39667.69
2023-05-01T07:13:09.371Z,39623.78
2023-05-01T07:15:35.892Z,39667.69
2023-05-01T07:18:05.620Z,39637.75
2023-05-01T07:20:32.817Z,39633.75
2023-05-01T07:22:59.265Z,39641.75
2023-05-01T07:25:25.655Z,39561.94
2023-05-01T07:27:52.586Z,39551.97
2023-05-01T07:30:19.062Z,39538.00
2023-05-01T07:32:45.521Z,39559.94
2023-05-01T07:35:12.093Z,39559.94
2023-05-01T07:37:38.606Z,39526.03
2023-05-01T07:40:05.527Z,39528.03
2023-05-01T07:42:31.957Z,39536.00
2023-05-01T07:44:58.477Z,39551.97
2023-05-01T07:47:26.194Z,39524.03
2023-05-01T07:49:52.616Z,39496.13
2023-05-01T07:52:20.014Z,39488.13
2023-05-01T07:54:51.139Z,39488.13
2023-05-01T07:57:17.847Z,39482.16
2023-05-01T07:59:44.285Z,39468.19
2023-05-01T08:02:10.761Z,39472.19
2023-05-01T08:04:37.279Z,39440.25
2023-05-01T08:07:03.671Z,39468.19
2023-05-01T08:09:30.057Z,39438.25
2023-05-01T08:11:56.448Z,39440.25
2023-05-01T08:14:22.899Z,39424.28
2023-05-01T08:16:54.201Z,39444.25
2023-05-01T08:19:21.153Z,39452.22
2023-05-01T08:21:47.538Z,39456.22
2023-05-01T08:24:14.023Z,39444.25
2023-05-01T08:26:40.596Z,39424.28
2023-05-01T08:29:07.004Z,39428.28
2023-05-01T08:31:35.769Z,39426.28
2023-05-01T08:34:02.327Z,39440.25
2023-05-01T08:36:28.700Z,39424.28
2023-05-01T08:38:55.087Z,39484.16
2023-05-01T08:41:22.804Z,39480.16
2023-05-01T08:43:49.764Z,39488.13
2023-05-01T08:46:32.227Z,39468.19
2023-05-01T08:49:01.284Z,39480.16
2023-05-01T08:51:31.186Z,39468.19
2023-05-01T08:53:58.441Z,39476.16
2023-05-01T08:56:25.329Z,39492.13
2023-05-01T08:58:53.997Z,39450.22
2023-05-01T09:01:22.192Z,39452.22
2023-05-01T09:03:50.954Z,39394.38
2023-05-01T09:06:17.676Z,39384.41
2023-05-01T09:08:44.124Z,39348.50
2023-05-01T09:11:11.914Z,39400.34
2023-05-01T09:13:38.797Z,39372.44
2023-05-01T09:16:06.398Z,39416.31
2023-05-01T09:18:34.509Z,39440.25
2023-05-01T09:21:01.850Z,39440.25
2023-05-01T09:23:28.264Z,39460.19
2023-05-01T09:25:55.249Z,39416.31
2023-05-01T09:28:45.968Z,39424.28
2023-05-01T09:31:32.690Z,39476.16
2023-05-01T09:34:01.327Z,39484.16
2023-05-01T09:36:32.400Z,39488.13
2023-05-01T09:39:00.352Z,39460.19
2023-05-01T09:41:27.896Z,39496.13
2023-05-01T09:43:56.156Z,39516.06
2023-05-01T09:46:24.509Z,39440.25
2023-05-01T09:48:59.824Z,39452.22
2023-05-01T09:51:31.149Z,39452.22
2023-05-01T09:53:59.235Z,39486.13
2023-05-01T09:56:27.010Z,39504.09
2023-05-01T09:58:54.801Z,39494.13
2023-05-01T10:01:38.550Z,39488.13
2023-05-01T10:04:05.788Z,39450.22
2023-05-01T10:06:32.457Z,39492.13
2023-05-01T10:08:59.021Z,39474.16
2023-05-01T10:11:26.745Z,39492.13
2023-05-01T10:14:11.738Z,39538.00
2023-05-01T10:16:38.874Z,39547.97
2023-05-01T10:19:06.409Z,39567.94
2023-05-01T10:21:33.909Z,39583.88
2023-05-01T10:24:03.483Z,39587.88
2023-05-01T10:26:30.074Z,39587.88
2023-05-01T10:28:59.515Z,39571.91
2023-05-01T10:31:29.575Z,39623.78
2023-05-01T10:33:56.492Z,39659.69
2023-05-01T10:36:28.700Z,39659.69
2023-05-01T10:38:55.215Z,39567.94
2023-05-01T10:41:59.801Z,39506.09
2023-05-01T10:44:27.213Z,39530.03
2023-05-01T10:46:54.871Z,39551.97
2023-05-01T10:49:22.130Z,39603.84
2023-05-01T10:52:04.099Z,39601.84
2023-05-01T10:54:31.490Z,39611.81
2023-05-01T10:57:02.924Z,39625.78
2023-05-01T11:00:01.640Z,39623.78
2023-05-01T11:02:30.253Z,39615.81
2023-05-01T11:04:57.114Z,39583.88
2023-05-01T11:07:24.759Z,39587.88
2023-05-01T11:09:55.891Z,39627.78
2023-05-01T11:12:52.157Z,39671.66
2023-05-01T11:15:30.264Z,39687.63
2023-05-01T11:17:57.770Z,39615.81
2023-05-01T11:20:24.249Z,39609.81
2023-05-01T11:22:57.693Z,39559.94
2023-05-01T11:25:27.151Z,39587.88
2023-05-01T11:27:57.622Z,39639.75
2023-05-01T11:30:24.577Z,39691.63
2023-05-01T11:32:51.704Z,39587.88
2023-05-01T11:35:23.835Z,39643.75
2023-05-01T11:37:56.791Z,39655.72
2023-05-01T11:40:26.867Z,39675.66
2023-05-01T11:43:07.219Z,39679.66
2023-05-01T11:45:35.893Z,39647.72
2023-05-01T11:48:04.540Z,39659.69
2023-05-01T11:50:38.549Z,39607.84
2023-05-01T11:53:17.719Z,39532.03
2023-05-01T11:55:45.363Z,39484.16
2023-05-01T11:58:12.601Z,39382.41
2023-05-01T12:00:41.610Z,39450.22
2023-05-01T12:03:13.409Z,39496.13
2023-05-01T12:05:43.022Z,39540.00
2023-05-01T12:08:12.080Z,39524.03
2023-05-01T12:10:41.167Z,39444.25
2023-05-01T12:13:09.381Z,39390.38
2023-05-01T12:15:37.947Z,39400.34
2023-05-01T12:18:05.683Z,39212.84
2023-05-01T12:20:37.348Z,39280.66
2023-05-01T12:23:07.572Z,39304.59
2023-05-01T12:25:34.856Z,39264.72
2023-05-01T12:28:12.104Z,39226.81
2023-05-01T12:30:39.378Z,39129.06
2023-05-01T12:33:20.663Z,39063.25
2023-05-01T12:35:49.486Z,39073.22
2023-05-01T12:38:20.927Z,39091.16
2023-05-01T12:40:55.656Z,39081.19
2023-05-01T12:43:35.816Z,39083.19
2023-05-01T12:46:04.432Z,39061.25
2023-05-01T12:48:32.941Z,38973.50
2023-05-01T12:51:00.449Z,39025.34
2023-05-01T12:53:28.109Z,39021.34
2023-05-01T12:55:57.254Z,39017.38
2023-05-01T12:58:24.877Z,39033.31
2023-05-01T13:00:53.790Z,39025.34
2023-05-01T13:03:28.664Z,39025.34
2023-05-01T13:06:03.109Z,39055.28
2023-05-01T13:08:33.689Z,39059.25
2023-05-01T13:11:03.844Z,39049.28
2023-05-01T13:13:34.095Z,39023.34
2023-05-01T13:16:14.327Z,39073.22
2023-05-01T13:18:52.233Z,39039.31
2023-05-01T13:21:21.510Z,39045.28
2023-05-01T13:23:52.410Z,38965.50
2023-05-01T13:26:26.732Z,38869.78
2023-05-01T13:28:53.740Z,38877.75
2023-05-01T13:31:20.211Z,38778.03
2023-05-01T13:33:50.928Z,38821.91
2023-05-01T13:36:25.356Z,38845.84
2023-05-01T13:38:55.775Z,38845.84
2023-05-01T13:41:24.346Z,38817.91
2023-05-01T13:43:53.331Z,38839.84
2023-05-01T13:46:22.849Z,38867.78
2023-05-01T13:48:51.075Z,38867.78
2023-05-01T13:51:22.369Z,38863.78
2023-05-01T13:53:48.845Z,38881.75
2023-05-01T13:56:15.746Z,38927.63
2023-05-01T13:58:42.571Z,38921.63
2023-05-01T14:01:16.088Z,38837.84
2023-05-01T14:03:43.774Z,38863.78
2023-05-01T14:06:13.742Z,38897.69
2023-05-01T14:08:40.407Z,38839.84
2023-05-01T14:11:08.725Z,38686.28
2023-05-01T14:13:46.171Z,38622.47
2023-05-01T14:16:25.013Z,38680.28
2023-05-01T14:18:55.173Z,38674.31
2023-05-01T14:21:24.143Z,38590.56
2023-05-01T14:23:52.462Z,38518.75
2023-05-01T14:26:20.851Z,38526.72
2023-05-01T14:28:48.843Z,38546.66
2023-05-01T14:31:21.393Z,38490.84
2023-05-01T14:33:58.197Z,38492.81
2023-05-01T14:36:25.510Z,38423.03
2023-05-01T14:38:53.026Z,38407.06
2023-05-01T14:41:19.614Z,38456.94
2023-05-01T14:43:46.256Z,38466.91
2023-05-01T14:46:14.825Z,38417.03
2023-05-01T14:48:42.347Z,38446.97
2023-05-01T14:51:18.764Z,38438.97
2023-05-01T14:53:45.435Z,38387.13
2023-05-01T14:56:12.618Z,38349.25
2023-05-01T14:58:39.287Z,38363.19
2023-05-01T15:01:06.019Z,38319.31
2023-05-01T15:03:41.134Z,38305.38
2023-05-01T15:06:08.827Z,38307.34
2023-05-01T15:08:35.617Z,38321.31
2023-05-01T15:11:02.127Z,38305.38
2023-05-01T15:13:28.809Z,38303.38
2023-05-01T15:15:55.250Z,38303.38
2023-05-01T15:18:24.758Z,38271.47
2023-05-01T15:20:51.143Z,38319.31
2023-05-01T15:23:17.711Z,38295.41
2023-05-01T15:25:44.348Z,38323.31
2023-05-01T15:28:13.404Z,38331.28
2023-05-01T15:30:44.117Z,38325.31
2023-05-01T15:33:10.509Z,38291.41
2023-05-01T15:35:37.138Z,38275.44
2023-05-01T15:38:04.119Z,38227.59
2023-05-01T15:40:30.535Z,38223.59
2023-05-01T15:42:56.939Z,38215.63
2023-05-01T15:45:23.549Z,38241.56
2023-05-01T15:47:50.393Z,38267.47
2023-05-01T15:50:16.827Z,38187.72
2023-05-01T15:52:43.201Z,38211.63
2023-05-01T15:55:10.048Z,38203.66
2023-05-01T15:57:36.645Z,38225.59
2023-05-01T16:00:04.443Z,38167.78
2023-05-01T16:02:32.655Z,38189.72
2023-05-01T16:05:00.219Z,38199.69
2023-05-01T16:07:29.260Z,38251.53
2023-05-01T16:09:57.214Z,38249.53
2023-05-01T16:12:24.222Z,38269.47
2023-05-01T16:14:50.800Z,38293.41
2023-05-01T16:17:19.393Z,38307.34
2023-05-01T16:19:46.490Z,38289.41
2023-05-01T16:22:14.996Z,38267.47
2023-05-01T16:24:41.546Z,38309.34
2023-05-01T16:27:11.756Z,38325.31
2023-05-01T16:29:38.876Z,38411.06
2023-05-01T16:32:05.955Z,38442.97
2023-05-01T16:34:32.624Z,38474.88
2023-05-01T16:36:59.049Z,38470.88
2023-05-01T16:39:25.736Z,38486.84
2023-05-01T16:41:54.804Z,38474.88
2023-05-01T16:44:22.783Z,38482.84
2023-05-01T16:46:54.570Z,38498.81
2023-05-01T16:49:22.045Z,38458.91
2023-05-01T16:51:48.698Z,38448.94
2023-05-01T16:54:15.892Z,38437.00
2023-05-01T16:56:42.512Z,38474.88
2023-05-01T16:59:08.901Z,38419.03
2023-05-01T17:01:35.491Z,38399.09
2023-05-01T17:04:02.585Z,38425.03
2023-05-01T17:06:29.117Z,38442.97
2023-05-01T17:08:55.816Z,38438.97
2023-05-01T17:11:22.530Z,38456.94
2023-05-01T17:13:48.977Z,38411.06
2023-05-01T17:16:15.417Z,38359.22
2023-05-01T17:18:42.516Z,38339.28
2023-05-01T17:21:09.535Z,38359.22
2023-05-01T17:23:35.960Z,38307.34
2023-05-01T17:26:02.477Z,38343.25
2023-05-01T17:28:28.878Z,38301.38
2023-05-01T17:30:55.274Z,38331.28
2023-05-01T17:33:21.878Z,38303.38
2023-05-01T17:35:49.326Z,38303.38
2023-05-01T17:38:16.934Z,38339.28
2023-05-01T17:40:43.421Z,38317.34
2023-05-01T17:43:10.967Z,38323.31
2023-05-01T17:45:37.464Z,38325.31
2023-05-01T17:48:03.988Z,38335.28
2023-05-01T17:50:30.388Z,38303.38
2023-05-01T17:52:56.864Z,38341.25
2023-05-01T17:55:23.584Z,38335.28
2023-05-01T17:57:52.157Z,38333.28
2023-05-01T18:00:19.194Z,38323.31
2023-05-01T18:02:47.501Z,38353.22
2023-05-01T18:05:14.325Z,38333.28
2023-05-01T18:07:41.118Z,38309.34
2023-05-01T18:10:08.215Z,38347.25
2023-05-01T18:12:35.084Z,38323.31
2023-05-01T18:15:01.461Z,38351.22
2023-05-01T18:17:27.856Z,38315.34
2023-05-01T18:19:54.829Z,38383.13
2023-05-01T18:22:21.257Z,38395.09
2023-05-01T18:24:47.944Z,38389.13
2023-05-01T18:27:14.336Z,38379.16
2023-05-01T18:29:40.758Z,38347.25
2023-05-01T18:32:07.296Z,38367.19
2023-05-01T18:34:33.768Z,38375.16
2023-05-01T18:37:00.185Z,38403.09
2023-05-01T18:39:26.560Z,38383.13
2023-05-01T18:41:54.591Z,38381.16
2023-05-01T18:44:21.041Z,38367.19
2023-05-01T18:46:47.660Z,38335.28
2023-05-01T18:49:14.705Z,38311.34
2023-05-01T18:51:41.333Z,38279.44
2023-05-01T18:54:09.723Z,38283.44
2023-05-01T18:56:36.144Z,38315.34
2023-05-01T18:59:02.527Z,38309.34
2023-05-01T19:01:28.985Z,38283.44
2023-05-01T19:03:58.898Z,38287.41
2023-05-01T19:06:26.236Z,38273.47
2023-05-01T19:08:53.543Z,38305.38
2023-05-01T19:11:21.523Z,38309.34
2023-05-01T19:13:48.538Z,38321.31
2023-05-01T19:16:15.046Z,38323.31
2023-05-01T19:18:41.580Z,38339.28
2023-05-01T19:21:08.028Z,38339.28
2023-05-01T19:23:35.480Z,38335.28
2023-05-01T19:26:04.530Z,38349.25
2023-05-01T19:28:31.124Z,38355.22
2023-05-01T19:30:57.820Z,38383.13
2023-05-01T19:33:24.287Z,38355.22
2023-05-01T19:35:51.284Z,38387.13
2023-05-01T19:38:17.686Z,38381.16
2023-05-01T19:40:45.138Z,38389.13
2023-05-01T19:43:14.402Z,38393.13
2023-05-01T19:45:40.842Z,38333.28
2023-05-01T19:48:07.689Z,38319.31
2023-05-01T19:50:34.316Z,38337.28
2023-05-01T19:53:01.344Z,38305.38
2023-05-01T19:55:28.314Z,38307.34
2023-05-01T19:57:54.900Z,38301.38
2023-05-01T20:00:21.377Z,38315.34
2023-05-01T20:02:48.444Z,38295.41
2023-05-01T20:05:14.928Z,38299.38
2023-05-01T20:07:41.389Z,38285.44
2023-05-01T20:10:09.557Z,38303.38
2023-05-01T20:12:36.965Z,38273.47
2023-05-01T20:15:04.311Z,38275.44
2023-05-01T20:17:30.770Z,38281.44
2023-05-01T20:19:57.295Z,38235.56
2023-05-01T20:22:23.813Z,38259.50
2023-05-01T20:24:50.278Z,38237.56
2023-05-01T20:27:16.710Z,38233.56
2023-05-01T20:29:43.876Z,38227.59
2023-05-01T20:32:10.241Z,38265.47
2023-05-01T20:34:36.741Z,38217.63
2023-05-01T20:37:03.783Z,38219.63
2023-05-01T20:39:30.268Z,38199.69
2023-05-01T20:41:56.684Z,38201.66
2023-05-01T20:44:23.078Z,38203.66
2023-05-01T20:46:50.079Z,38203.66
2023-05-01T20:49:16.587Z,38217.63
2023-05-01T20:51:43.122Z,38207.66
2023-05-01T20:54:09.486Z,38211.63
2023-05-01T20:56:35.951Z,38215.63
2023-05-01T20:59:03.729Z,38227.59
2023-05-01T21:01:33.207Z,38227.59
2023-05-01T21:03:59.975Z,38233.56
2023-05-01T21:06:29.606Z,38263.50
2023-05-01T21:08:56.033Z,38245.53
2023-05-01T21:11:22.482Z,38247.53
2023-05-01T21:13:48.936Z,38249.53
2023-05-01T21:16:16.530Z,38239.56
2023-05-01T21:18:43.351Z,38251.53
2023-05-01T21:21:10.585Z,38255.50
2023-05-01T21:23:42.316Z,38229.59
2023-05-01T21:26:08.691Z,38251.53
2023-05-01T21:28:38.392Z,38233.56
2023-05-01T21:31:04.872Z,38223.59
2023-05-01T21:33:31.313Z,38227.59
2023-05-01T21:35:57.781Z,38211.63
2023-05-01T21:38:24.220Z,38259.50
2023-05-01T21:40:51.067Z,38231.59
2023-05-01T21:43:18.960Z,38249.53
2023-05-01T21:45:45.790Z,38241.56
2023-05-01T21:48:15.994Z,38213.63
2023-05-01T21:50:42.482Z,38231.59
2023-05-01T21:53:09.424Z,38227.59
2023-05-01T21:55:35.895Z,38259.50
2023-05-01T21:58:02.403Z,38223.59
2023-05-01T22:00:29.858Z,38261.50
2023-05-01T22:02:56.535Z,38259.50
2023-05-01T22:05:23.253Z,38249.53
2023-05-01T22:07:52.007Z,38259.50
2023-05-01T22:10:19.472Z,38275.44
2023-05-01T22:12:46.763Z,38275.44
2023-05-01T22:15:15.379Z,38267.47
2023-05-01T22:17:42.293Z,38277.44
2023-05-01T22:20:09.323Z,38291.41
2023-05-01T22:22:36.607Z,38295.41
2023-05-01T22:25:03.983Z,38279.44
2023-05-01T22:27:31.024Z,38295.41
2023-05-01T22:29:58.298Z,38317.34
2023-05-01T22:32:25.096Z,38307.34
2023-05-01T22:34:51.896Z,38325.31
2023-05-01T22:37:19.368Z,38327.31
2023-05-01T22:39:46.312Z,38311.34
2023-05-01T22:42:12.722Z,38347.25
2023-05-01T22:44:39.248Z,38353.22
2023-05-01T22:47:06.295Z,38339.28
2023-05-01T22:49:32.825Z,38335.28
2023-05-01T22:51:59.734Z,38331.28
2023-05-01T22:54:26.314Z,38307.34
2023-05-01T22:56:52.883Z,38339.28
2023-05-01T22:59:19.614Z,38347.25
2023-05-01T23:01:46.315Z,38345.25
2023-05-01T23:04:13.918Z,38371.19
2023-05-01T23:06:40.631Z,38375.16
2023-05-01T23:09:07.167Z,38333.28
2023-05-01T23:11:34.424Z,38367.19
2023-05-01T23:14:01.230Z,38393.13
2023-05-01T23:16:28.025Z,38349.25
2023-05-01T23:18:55.658Z,38365.19
2023-05-01T23:21:22.203Z,38373.16
2023-05-01T23:23:48.644Z,38351.22
2023-05-01T23:26:24.896Z,38419.03
2023-05-01T23:28:52.290Z,38423.03
2023-05-01T23:31:25.139Z,38419.03
2023-05-01T23:33:51.873Z,38437.00
2023-05-01T23:36:19.181Z,38446.97
2023-05-01T23:38:46.240Z,38442.97
2023-05-01T23:41:13.318Z,38470.88
2023-05-01T23:43:40.791Z,38472.88
2023-05-01T23:46:07.534Z,38482.84
2023-05-01T23:48:34.579Z,38470.88
2023-05-01T23:51:01.396Z,38482.84
2023-05-01T23:53:27.830Z,38498.81
2023-05-01T23:55:54.373Z,38520.75
2023-05-01T23:58:20.841Z,38554.66
